Terminal Aerodrome Forecast
Issued by NWS

Home | Current Version | Previous Version | Text Only | Print | Product List | Glossary On
Versions: 1 2 3 4 5 6 7 8 9 10 11 12 13 14
000
FTUS45 KPIH 292338
TAFSUN
TAF
KSUN 292338Z 3000/3024 16007KT P6SM VCSH SCT020 BKN110
     FM300200 VRB06KT 6SM -SHRA BKN030 OVC080
     FM300500 VRB06KT 4SM -SHRA BR SCT006 OVC010
     FM301000 VRB06KT P6SM VCSH SCT010 OVC020
     FM301500 VRB06KT 4SM -SHRA BR SCT006 OVC010=

USA.gov is the U.S. government's official web portal to all federal, state and local government web resources and services.